Time;durP1;ratioP1;P1;durP2;ratioP2;P2;SDS_P1;SDS_P2;PMS_P1;PMS_P2;Temp;Humidity;BMP_temperature;BMP_pressure;BME280_temperature;BME280_humidity;BME280_pressure;Samples;Min_cycle;Max_cycle;Signal;HPM_P1;HPM_P2
2022/02/17 00:01:14;;;;;;;18.37;7.00;;;;;;;-1.17;71.44;101846.73;1791562;80;21076;-65
2022/02/17 00:03:43;;;;;;;19.35;7.37;;;;;;;-1.14;71.32;101842.47;1787929;79;21096;-65
2022/02/17 00:06:12;;;;;;;17.02;8.43;;;;;;;-1.14;71.20;101842.08;1787814;79;21807;-66
2022/02/17 00:08:42;;;;;;;13.65;4.97;;;;;;;-1.15;71.32;101835.14;1787923;80;21566;-65
2022/02/17 00:11:11;;;;;;;14.03;5.85;;;;;;;-1.15;71.37;101838.16;1788038;80;21143;-65
2022/02/17 00:13:40;;;;;;;14.78;4.47;;;;;;;-1.21;71.52;101833.70;1788368;80;21092;-65
2022/02/17 00:16:09;;;;;;;17.73;7.42;;;;;;;-1.26;71.78;101821.93;1764365;80;21120;-65
2022/02/17 00:21:26;;;;;;;19.62;7.00;;;;;;;-1.30;71.96;101816.23;1824626;79;21127;-65
2022/02/17 00:23:55;;;;;;;13.20;6.00;;;;;;;-1.29;71.58;101811.53;1824629;79;21617;-64
2022/02/17 00:26:24;;;;;;;11.97;5.60;;;;;;;-1.28;71.35;101808.09;1823019;79;21073;-65
2022/02/17 00:28:56;;;;;;;12.25;5.65;;;;;;;-1.28;71.16;101811.98;1824458;77;21143;-64
2022/02/17 00:31:23;;;;;;;8.55;4.72;;;;;;;-1.26;71.08;101801.69;1824275;79;21069;-65
2022/02/17 00:33:51;;;;;;;8.48;4.22;;;;;;;-1.31;71.29;101799.00;1822859;79;21053;-65
2022/02/17 00:36:20;;;;;;;12.18;5.12;;;;;;;-1.38;71.55;101786.74;1824542;79;21175;-65
2022/02/17 00:38:51;;;;;;;11.80;3.80;;;;;;;-1.41;71.63;101787.52;1824589;79;21077;-65
2022/02/17 00:41:38;;;;;;;13.08;6.05;;;;;;;-1.41;71.72;101789.23;1781814;80;21211;-66
2022/02/17 00:44:09;;;;;;;13.10;4.37;;;;;;;-1.43;72.09;101785.31;1781139;80;21089;-62
2022/02/17 00:46:37;;;;;;;12.20;5.75;;;;;;;-1.42;71.78;101787.08;1781781;80;21139;-63
2022/02/17 00:49:06;;;;;;;14.28;6.05;;;;;;;-1.42;71.54;101788.76;1781745;80;21102;-64
2022/02/17 00:51:54;;;;;;;9.28;4.15;;;;;;;-1.41;71.32;101791.81;1781737;80;21174;-63
2022/02/17 00:54:23;;;;;;;8.95;4.70;;;;;;;-1.40;71.16;101793.58;1797213;78;21158;-68
2022/02/17 00:56:52;;;;;;;10.25;4.58;;;;;;;-1.39;71.11;101791.02;1798732;80;21082;-63
2022/02/17 00:59:22;;;;;;;10.68;4.75;;;;;;;-1.40;71.32;101783.25;1798600;80;21111;-63
2022/02/17 01:01:50;;;;;;;17.90;5.12;;;;;;;-1.45;72.01;101778.36;1798681;80;21156;-66
2022/02/17 01:04:19;;;;;;;14.53;6.22;;;;;;;-1.48;71.91;101774.40;1799052;80;21192;-66
2022/02/17 01:06:48;;;;;;;11.63;5.90;;;;;;;-1.53;72.02;101773.39;1799088;80;21151;-64
2022/02/17 01:09:18;;;;;;;17.20;5.67;;;;;;;-1.54;72.02;101775.53;1799135;80;21133;-62
2022/02/17 01:11:46;;;;;;;11.88;4.45;;;;;;;-1.54;71.90;101770.37;1799106;80;21622;-63
2022/02/17 01:14:15;;;;;;;5.58;3.15;;;;;;;-1.54;71.92;101771.23;1798731;80;21050;-62
2022/02/17 01:16:44;;;;;;;10.32;5.58;;;;;;;-1.53;71.93;101768.23;1798518;80;21152;-63
2022/02/17 01:19:15;;;;;;;12.45;4.60;;;;;;;-1.54;72.29;101767.36;1798664;80;21587;-61
2022/02/17 01:21:45;;;;;;;11.97;5.08;;;;;;;-1.58;72.50;101763.81;1797982;80;21163;-62
2022/02/17 01:24:15;;;;;;;6.33;3.02;;;;;;;-1.59;72.39;101756.89;1798721;80;21551;-62
2022/02/17 01:26:44;;;;;;;5.00;2.60;;;;;;;-1.59;72.30;101754.30;1798454;80;21556;-62
2022/02/17 01:29:15;;;;;;;12.00;4.85;;;;;;;-1.60;72.06;101754.29;1798081;80;21504;-64
2022/02/17 01:31:44;;;;;;;12.73;5.53;;;;;;;-1.60;72.11;101752.57;1798546;80;21136;-62
2022/02/17 01:34:14;;;;;;;11.30;4.97;;;;;;;-1.59;71.99;101752.15;1797849;80;21096;-63
2022/02/17 01:37:00;;;;;;;12.40;6.17;;;;;;;-1.60;71.75;101747.41;1797050;80;21147;-64
2022/02/17 01:39:30;;;;;;;12.58;3.67;;;;;;;-1.59;71.68;101744.40;1798265;80;21105;-62
2022/02/17 01:41:59;;;;;;;6.42;3.85;;;;;;;-1.59;72.07;101738.81;1798443;80;21147;-62
2022/02/17 01:44:28;;;;;;;7.00;3.75;;;;;;;-1.61;72.10;101730.15;1798646;80;21516;-62
2022/02/17 01:46:59;;;;;;;10.98;4.40;;;;;;;-1.61;72.18;101732.73;1797550;80;21093;-62
2022/02/17 01:49:28;;;;;;;10.50;5.28;;;;;;;-1.61;72.07;101734.02;1798623;80;21563;-62
2022/02/17 01:51:58;;;;;;;7.67;4.03;;;;;;;-1.60;71.88;101743.96;1797672;80;21538;-62
2022/02/17 01:54:28;;;;;;;15.13;7.58;;;;;;;-1.61;71.75;101735.31;1798009;80;21121;-62
2022/02/17 01:56:57;;;;;;;10.30;5.20;;;;;;;-1.61;72.47;101732.73;1795766;80;21132;-66
2022/02/17 01:59:27;;;;;;;7.20;3.98;;;;;;;-1.61;72.53;101734.02;1795689;79;21187;-66
2022/02/17 02:01:57;;;;;;;11.85;4.60;;;;;;;-1.62;72.45;101739.17;1795612;79;21132;-65
2022/02/17 02:04:25;;;;;;;15.95;6.60;;;;;;;-1.63;72.17;101744.73;1790371;80;21055;-66
2022/02/17 02:06:56;;;;;;;16.30;7.85;;;;;;;-1.64;71.98;101740.42;1789141;80;21086;-67
2022/02/17 02:09:25;;;;;;;21.65;8.90;;;;;;;-1.64;71.88;101743.39;1790283;80;21096;-66
2022/02/17 02:12:02;;;;;;;14.25;5.08;;;;;;;-1.64;71.86;101741.70;1788611;80;21051;-61
2022/02/17 02:14:31;;;;;;;14.10;4.83;;;;;;;-1.61;72.02;101744.35;1790672;80;21166;-63
2022/02/17 02:17:01;;;;;;;10.50;4.12;;;;;;;-1.61;71.95;101742.20;1790300;80;21534;-66
2022/02/17 02:19:29;;;;;;;13.18;5.08;;;;;;;-1.63;72.04;101734.83;1790235;80;21104;-65
2022/02/17 02:22:00;;;;;;;9.10;4.42;;;;;;;-1.66;72.12;101739.50;1790292;80;21606;-66
2022/02/17 02:24:29;;;;;;;14.15;5.37;;;;;;;-1.67;71.95;101745.48;1790263;80;21099;-65
2022/02/17 02:26:58;;;;;;;13.13;4.53;;;;;;;-1.68;71.96;101742.86;1790372;80;21107;-64
2022/02/17 02:29:28;;;;;;;9.98;4.37;;;;;;;-1.69;71.82;101739.41;1795074;80;21173;-62
2022/02/17 02:31:57;;;;;;;11.57;5.35;;;;;;;-1.69;71.89;101741.99;1795483;80;21508;-65
2022/02/17 02:34:25;;;;;;;18.17;6.12;;;;;;;-1.68;71.81;101735.98;1795586;80;21117;-66
2022/02/17 02:36:54;;;;;;;13.40;6.12;;;;;;;-1.67;71.75;101736.45;1795432;80;21089;-65
2022/02/17 02:39:23;;;;;;;16.93;5.92;;;;;;;-1.64;71.96;101733.06;1790350;80;21050;-66
2022/02/17 02:41:53;;;;;;;15.40;6.80;;;;;;;-1.62;72.16;101724.54;1789848;80;21140;-66
2022/02/17 02:44:22;;;;;;;20.30;7.05;;;;;;;-1.61;72.17;101726.27;1790254;80;21096;-64
2022/02/17 02:46:53;;;;;;;14.78;7.33;;;;;;;-1.58;72.55;101730.23;1789561;80;21231;-64
2022/02/17 02:49:22;;;;;;;15.80;7.30;;;;;;;-1.57;72.53;101732.39;1795071;80;21139;-64
2022/02/17 02:51:51;;;;;;;15.78;8.28;;;;;;;-1.56;72.24;101728.56;1795814;80;21058;-65
2022/02/17 02:54:21;;;;;;;13.55;7.30;;;;;;;-1.57;72.18;101728.52;1793614;80;21183;-63
2022/02/17 02:56:50;;;;;;;15.23;6.12;;;;;;;-1.58;72.22;101730.23;1795671;80;21097;-65
2022/02/17 02:59:19;;;;;;;14.63;6.33;;;;;;;-1.58;72.28;101731.53;1795489;80;21584;-63
2022/02/17 03:01:48;;;;;;;8.55;5.08;;;;;;;-1.58;72.48;101726.79;1795714;79;21527;-65
2022/02/17 03:04:18;;;;;;;12.70;5.50;;;;;;;-1.61;72.39;101723.69;1790584;79;21134;-66
2022/02/17 03:06:47;;;;;;;13.35;5.95;;;;;;;-1.63;72.66;101718.04;1790365;80;21112;-65
2022/02/17 03:09:16;;;;;;;9.08;4.55;;;;;;;-1.66;72.64;101721.43;1790378;80;21529;-62
2022/02/17 03:11:46;;;;;;;14.73;5.22;;;;;;;-1.67;72.51;101724.83;1789751;80;21070;-63
2022/02/17 03:14:17;;;;;;;13.45;5.00;;;;;;;-1.67;72.48;101717.50;1794439;80;21148;-63
2022/02/17 03:16:46;;;;;;;16.85;5.87;;;;;;;-1.64;72.35;101718.86;1795585;80;21101;-63
2022/02/17 03:19:15;;;;;;;11.73;5.72;;;;;;;-1.61;72.24;101714.66;1795570;80;21160;-66
2022/02/17 03:21:44;;;;;;;12.75;6.53;;;;;;;-1.58;72.24;101717.33;1795643;80;21066;-64
2022/02/17 03:24:13;;;;;;;11.55;5.53;;;;;;;-1.52;72.27;101711.87;1795549;79;21069;-65
2022/02/17 03:26:43;;;;;;;21.07;6.90;;;;;;;-1.48;72.13;101712.40;1795276;80;21214;-64
2022/02/17 03:29:12;;;;;;;10.98;4.80;;;;;;;-1.52;72.04;101703.70;1791067;80;21094;-65
2022/02/17 03:31:42;;;;;;;11.00;5.58;;;;;;;-1.44;72.10;101707.77;1789440;80;21129;-64
2022/02/17 03:34:12;;;;;;;13.30;6.17;;;;;;;-1.45;72.22;101704.31;1790283;80;21546;-65
2022/02/17 03:36:41;;;;;;;13.53;5.80;;;;;;;-1.47;72.61;101696.95;1790145;80;21115;-65
2022/02/17 03:39:10;;;;;;;11.90;6.37;;;;;;;-1.49;72.40;101687.00;1793972;80;21551;-63
2022/02/17 03:41:41;;;;;;;12.55;6.10;;;;;;;-1.49;72.38;101693.45;1783634;80;21089;-66
2022/02/17 03:44:11;;;;;;;16.90;7.15;;;;;;;-1.58;72.33;101680.30;1795290;79;21126;-67
2022/02/17 03:46:43;;;;;;;16.35;6.40;;;;;;;-1.49;72.62;101690.87;1795276;79;21193;-65
2022/02/17 03:49:13;;;;;;;17.30;7.17;;;;;;;-1.48;72.63;101684.85;1795423;79;21069;-68
2022/02/17 03:51:42;;;;;;;15.23;6.70;;;;;;;-1.46;72.68;101682.31;1795626;80;21089;-66
2022/02/17 03:54:11;;;;;;;16.02;7.00;;;;;;;-1.43;72.86;101681.97;1791379;80;21551;-66
2022/02/17 03:56:41;;;;;;;18.15;7.08;;;;;;;-1.43;72.70;101675.94;1789865;80;21154;-66
2022/02/17 04:02:05;;;;;;;14.93;5.60;;;;;;;-1.39;72.75;101661.83;1829859;78;21492;-63
2022/02/17 04:04:34;;;;;;;12.07;5.70;;;;;;;-1.38;72.56;101669.19;1829493;78;21111;-62
2022/02/17 04:07:04;;;;;;;16.30;7.72;;;;;;;-1.37;72.51;101664.45;1829973;78;21078;-64
2022/02/17 04:09:33;;;;;;;14.00;7.25;;;;;;;-1.36;72.53;101667.52;1829916;78;21140;-63
2022/02/17 04:12:02;;;;;;;16.10;7.47;;;;;;;-1.38;72.90;101655.84;1829948;78;21475;-65
2022/02/17 04:14:33;;;;;;;26.73;9.08;;;;;;;-1.36;72.92;101653.30;1829743;78;21160;-64
2022/02/17 04:17:03;;;;;;;19.40;7.97;;;;;;;-1.35;73.26;101653.73;1826962;78;21061;-63
2022/02/17 04:19:33;;;;;;;16.17;6.90;;;;;;;-1.33;73.54;101648.19;1829197;78;21081;-63
2022/02/17 04:22:12;;;;;;;12.80;6.08;;;;;;;-1.28;73.74;101645.30;1828821;78;21088;-63
2022/02/17 04:24:42;;;;;;;15.78;6.30;;;;;;;-1.24;73.46;101644.95;1829668;78;21065;-64
2022/02/17 04:27:13;;;;;;;17.30;6.40;;;;;;;-1.24;73.38;101643.23;1829719;78;21089;-68
2022/02/17 04:29:43;;;;;;;25.70;9.18;;;;;;;-1.23;73.35;101635.95;1829262;78;21073;-65
2022/02/17 04:32:13;;;;;;;15.65;6.95;;;;;;;-1.20;73.47;101637.33;1829788;78;21147;-64
2022/02/17 04:34:43;;;;;;;15.75;7.67;;;;;;;-1.17;73.35;101632.21;1830031;78;21559;-69
2022/02/17 04:37:13;;;;;;;24.75;9.05;;;;;;;-1.15;73.37;101631.39;1829811;78;21085;-70
2022/02/17 04:39:42;;;;;;;20.45;8.38;;;;;;;-1.12;73.77;101632.77;1829860;78;21529;-69
2022/02/17 04:42:18;;;;;;;15.40;6.08;;;;;;;-1.08;73.78;101630.70;1829766;78;21066;-67
2022/02/17 04:44:51;;;;;;;14.98;6.25;;;;;;;-1.00;73.64;101633.02;1829916;78;21125;-67
2022/02/17 04:47:20;;;;;;;20.27;7.22;;;;;;;-0.88;73.47;101628.56;1829884;78;21105;-66
2022/02/17 04:49:49;;;;;;;18.30;7.50;;;;;;;-0.72;73.36;101633.23;1829378;78;21623;-63
2022/02/17 04:52:20;;;;;;;22.00;8.83;;;;;;;-0.58;73.27;101630.93;1829895;78;21621;-63
2022/02/17 04:54:50;;;;;;;23.83;10.98;;;;;;;-0.42;73.18;101632.99;1829971;78;21062;-63
2022/02/17 04:57:18;;;;;;;22.62;12.07;;;;;;;-0.24;73.11;101635.09;1826950;78;21113;-63
2022/02/17 04:59:48;;;;;;;21.73;11.45;;;;;;;-0.04;73.05;101634.58;1824402;79;21184;-63
2022/02/17 05:02:17;;;;;;;32.33;12.40;;;;;;;0.22;72.83;101640.23;1824451;78;21051;-63
2022/02/17 05:04:47;;;;;;;20.77;11.73;;;;;;;0.57;72.47;101641.27;1822826;79;21135;-63
2022/02/17 05:07:20;;;;;;;33.02;14.40;;;;;;;0.92;72.18;101637.95;1823374;78;21168;-64
2022/02/17 05:09:49;;;;;;;20.88;10.40;;;;;;;1.24;71.88;101637.98;1824499;79;21043;-64
2022/02/17 05:12:20;;;;;;;21.40;9.63;;;;;;;1.45;71.66;101638.67;1824229;79;21100;-64
2022/02/17 05:14:50;;;;;;;23.27;9.35;;;;;;;1.61;71.72;101634.13;1824314;79;21581;-63
2022/02/17 05:17:20;;;;;;;27.00;9.43;;;;;;;1.75;71.93;101629.08;1824567;78;21321;-63
2022/02/17 05:19:49;;;;;;;25.32;9.25;;;;;;;1.96;71.66;101624.56;1824599;79;21098;-63
2022/02/17 05:22:40;;;;;;;25.00;9.63;;;;;;;2.26;71.33;101620.53;1824598;79;21072;-64
2022/02/17 05:25:19;;;;;;;;;;;;;;;2.53;70.66;101617.31;1827129;79;21197;-66
2022/02/17 05:27:52;;;;;;;33.35;12.40;;;;;;;2.87;70.95;101605.41;1824626;78;20141;-64
2022/02/17 05:30:25;;;;;;;26.42;12.03;;;;;;;3.27;71.32;101608.69;1817346;79;21185;-65
2022/02/17 05:33:03;;;;;;;27.52;11.55;;;;;;;3.69;71.73;101607.13;1824412;79;21092;-66
2022/02/17 05:35:34;;;;;;;27.30;12.00;;;;;;;4.19;71.04;101605.06;1821476;79;21565;-65
2022/02/17 05:38:20;;;;;;;24.20;10.75;;;;;;;4.76;70.09;101608.12;1824720;78;21552;-65
2022/02/17 05:41:10;;;;;;;37.75;15.23;;;;;;;5.32;69.15;101603.19;1746360;81;21121;-64
2022/02/17 05:43:42;;;;;;;43.98;15.28;;;;;;;5.94;68.16;101608.14;1746428;82;21529;-65
2022/02/17 05:46:10;;;;;;;30.35;13.58;;;;;;;6.46;67.30;101602.56;1775960;79;21063;-62
2022/02/17 05:48:39;;;;;;;26.27;11.68;;;;;;;6.98;66.42;101601.66;1824564;79;21126;-61
2022/02/17 05:51:08;;;;;;;27.58;10.15;;;;;;;7.41;65.92;101596.79;1824497;79;21087;-62
2022/02/17 05:53:37;;;;;;;24.32;11.80;;;;;;;7.88;65.37;101594.00;1827099;78;21120;-66
2022/02/17 05:56:06;;;;;;;20.35;9.60;;;;;;;8.21;64.42;101592.22;1830106;78;21069;-62
2022/02/17 05:58:35;;;;;;;22.77;13.40;;;;;;;8.66;63.94;101591.06;1829891;78;21053;-64
2022/02/17 06:01:04;;;;;;;30.20;13.08;;;;;;;9.06;62.72;101590.34;1829513;78;21069;-65
2022/02/17 06:03:34;;;;;;;26.52;12.53;;;;;;;9.24;61.66;101583.41;1826390;78;21066;-65
2022/02/17 06:06:03;;;;;;;35.35;13.50;;;;;;;9.78;61.18;101576.16;1826923;78;21050;-67
2022/02/17 06:08:32;;;;;;;31.68;12.68;;;;;;;10.22;60.42;101569.85;1826863;78;21128;-66
2022/02/17 06:11:01;;;;;;;29.52;12.55;;;;;;;10.75;59.32;101560.22;1826662;78;21049;-62
2022/02/17 06:13:29;;;;;;;36.58;13.20;;;;;;;11.19;58.02;101555.49;1826878;78;21022;-62
2022/02/17 06:15:58;;;;;;;36.65;13.18;;;;;;;11.44;56.61;101554.77;1826781;78;21125;-63
2022/02/17 06:18:27;;;;;;;34.23;12.45;;;;;;;11.85;56.04;101551.31;1826355;78;21127;-65
2022/02/17 06:20:55;;;;;;;30.85;11.95;;;;;;;12.21;55.27;101539.21;1826783;78;21095;-65
2022/02/17 06:23:24;;;;;;;33.67;12.82;;;;;;;12.52;53.81;101536.40;1826880;78;21062;-64
2022/02/17 06:25:53;;;;;;;39.23;13.53;;;;;;;12.76;53.28;101533.79;1826767;78;21085;-64
2022/02/17 06:28:21;;;;;;;21.73;10.82;;;;;;;13.21;52.40;101529.55;1826247;78;21141;-66
2022/02/17 06:30:50;;;;;;;29.23;9.60;;;;;;;13.68;51.48;101518.94;1826740;78;21093;-64
2022/02/17 06:33:19;;;;;;;15.40;7.22;;;;;;;13.90;50.65;101519.79;1826806;78;21064;-66
2022/02/17 06:35:48;;;;;;;10.13;5.05;;;;;;;14.10;50.22;101518.98;1826768;78;21065;-67
2022/02/17 06:38:16;;;;;;;10.38;5.40;;;;;;;14.25;49.80;101512.17;1826694;78;21140;-66
2022/02/17 06:40:45;;;;;;;15.65;7.17;;;;;;;14.40;48.79;101512.46;1826306;78;21049;-65
2022/02/17 06:43:15;;;;;;;26.02;10.08;;;;;;;14.50;48.02;101503.20;1826839;78;21139;-66
2022/02/17 06:45:44;;;;;;;27.45;11.88;;;;;;;14.66;47.36;101493.69;1826763;78;21058;-65
2022/02/17 06:48:13;;;;;;;21.40;10.30;;;;;;;14.74;47.00;101500.45;1826772;78;21543;-64
2022/02/17 06:50:42;;;;;;;16.95;6.78;;;;;;;14.85;46.52;101491.07;1826770;78;21129;-68
2022/02/17 06:53:11;;;;;;;26.40;9.75;;;;;;;15.11;45.93;101486.84;1826749;78;21603;-63
2022/02/17 06:55:40;;;;;;;21.57;8.98;;;;;;;15.37;45.72;101486.95;1821298;78;21094;-64
2022/02/17 06:58:09;;;;;;;19.35;8.80;;;;;;;15.63;45.11;101476.41;1821297;79;21079;-62
2022/02/17 07:00:38;;;;;;;18.20;6.97;;;;;;;15.63;44.16;101469.77;1821277;79;21137;-64
2022/02/17 07:03:07;;;;;;;19.85;7.35;;;;;;;15.73;43.95;101457.78;1823119;79;21153;-65
2022/02/17 07:05:36;;;;;;;10.38;4.95;;;;;;;15.75;43.70;101459.92;1824715;78;21042;-66
2022/02/17 07:08:05;;;;;;;13.38;5.97;;;;;;;15.82;43.00;101448.06;1824437;79;21467;-66
2022/02/17 07:13:21;;;;;;;9.35;4.78;;;;;;;15.67;42.46;101434.17;1824406;79;21482;-64
2022/02/17 07:15:50;;;;;;;9.35;5.00;;;;;;;15.79;42.86;101422.98;1824651;78;21589;-66
2022/02/17 07:18:19;;;;;;;7.45;3.22;;;;;;;15.90;42.02;101422.45;1824458;79;21599;-65
2022/02/17 07:20:49;;;;;;;3.90;2.20;;;;;;;16.11;41.58;101422.28;1824571;79;21518;-62
2022/02/17 07:23:20;;;;;;;15.72;3.83;;;;;;;16.33;41.72;101412.73;1824467;79;21043;-64
2022/02/17 07:25:48;;;;;;;5.65;3.35;;;;;;;16.69;41.21;101414.36;1827098;78;21118;-61
2022/02/17 07:28:21;;;;;;;8.50;3.15;;;;;;;17.13;40.23;101408.43;1829889;78;21169;-62
2022/02/17 07:30:50;;;;;;;9.33;4.03;;;;;;;17.34;38.96;101411.70;1829719;78;21101;-65
2022/02/17 07:33:20;;;;;;;13.05;6.97;;;;;;;17.40;37.57;101413.16;1830096;78;21047;-67
2022/02/17 07:35:49;;;;;;;6.45;3.20;;;;;;;17.30;37.17;101415.02;1829836;78;21529;-67
2022/02/17 07:38:18;;;;;;;11.38;5.15;;;;;;;17.01;37.36;101406.48;1829946;78;21121;-67
2022/02/17 07:40:47;;;;;;;16.93;7.15;;;;;;;16.94;37.38;101416.10;1829860;78;21125;-62
2022/02/17 07:43:15;;;;;;;8.43;3.60;;;;;;;17.15;37.02;101411.86;1829963;78;21052;-62
2022/02/17 07:45:44;;;;;;;15.38;3.25;;;;;;;16.80;35.34;101413.30;1829959;78;21007;-62
2022/02/17 07:48:13;;;;;;;7.40;2.87;;;;;;;16.44;36.38;101410.36;1828697;78;21074;-63
2022/02/17 07:50:42;;;;;;;14.33;3.40;;;;;;;16.42;36.43;101406.93;1830296;78;21513;-62
2022/02/17 07:53:10;;;;;;;5.05;3.20;;;;;;;16.57;36.26;101403.92;1828789;78;21149;-63
2022/02/17 07:55:39;;;;;;;10.60;3.50;;;;;;;16.26;35.65;101378.12;1830009;78;21168;-65
2022/02/17 07:58:14;;;;;;;11.25;2.98;;;;;;;16.18;36.25;101363.44;1828632;78;21048;-64
2022/02/17 08:00:38;;;;;;;8.30;3.58;;;;;;;16.05;36.41;101366.83;1824366;79;21047;-64
2022/02/17 08:03:08;;;;;;;6.08;2.45;;;;;;;16.09;36.35;101366.57;1825453;78;21091;-63
2022/02/17 08:05:40;;;;;;;12.78;3.12;;;;;;;16.13;36.19;101358.83;1827207;78;21075;-65
2022/02/17 08:08:11;;;;;;;7.67;3.35;;;;;;;15.98;36.12;101362.30;1827634;78;21059;-61
2022/02/17 08:10:40;;;;;;;11.53;3.10;;;;;;;16.27;35.87;101353.24;1827389;78;21062;-61
2022/02/17 08:13:09;;;;;;;4.70;2.45;;;;;;;16.69;34.98;101342.12;1827321;78;21000;-65
2022/02/17 08:15:38;;;;;;;6.80;2.85;;;;;;;16.75;35.59;101343.58;1827324;78;21004;-64
2022/02/17 08:18:07;;;;;;;3.65;2.60;;;;;;;16.42;35.35;101331.19;1827521;78;21459;-61
2022/02/17 08:20:36;;;;;;;8.68;2.87;;;;;;;16.39;35.41;101324.69;1827530;78;21114;-61
2022/02/17 08:23:05;;;;;;;7.22;3.00;;;;;;;16.41;34.98;101325.47;1827298;78;21060;-63
2022/02/17 08:25:34;;;;;;;8.20;2.92;;;;;;;16.69;35.18;101317.30;1827306;78;21060;-64
2022/02/17 08:28:03;;;;;;;10.55;3.12;;;;;;;17.10;34.09;101315.50;1827568;78;21486;-63
2022/02/17 08:30:36;;;;;;;5.30;3.20;;;;;;;17.31;33.75;101311.58;1827176;78;21040;-65
2022/02/17 08:33:03;;;;;;;7.60;3.50;;;;;;;17.58;33.21;101308.25;1827214;78;21040;-61
2022/02/17 08:35:32;;;;;;;13.22;4.53;;;;;;;17.88;33.08;101308.72;1827301;78;21498;-62
2022/02/17 08:38:01;;;;;;;6.65;2.65;;;;;;;18.27;32.86;101314.72;1827304;78;21105;-64
2022/02/17 08:40:30;;;;;;;5.65;3.15;;;;;;;18.69;32.29;101305.45;1827791;78;21592;-65
2022/02/17 08:43:08;;;;;;;8.60;3.77;;;;;;;18.62;31.89;101293.46;1827289;78;21466;-66
2022/02/17 08:45:30;;;;;;;6.17;2.70;;;;;;;18.50;31.60;101298.63;1826998;78;21105;-66
2022/02/17 08:48:00;;;;;;;8.08;3.08;;;;;;;18.25;31.94;101301.13;1827406;78;21494;-63
2022/02/17 08:50:28;;;;;;;4.85;2.70;;;;;;;17.84;32.40;101305.83;1827374;78;21039;-65
2022/02/17 08:52:57;;;;;;;8.55;2.90;;;;;;;17.68;32.92;101301.41;1827290;78;21106;-65
2022/02/17 08:55:26;;;;;;;7.95;3.65;;;;;;;17.78;33.11;101298.19;1827647;78;21093;-62
2022/02/17 08:57:56;;;;;;;9.80;2.75;;;;;;;17.50;33.01;101290.52;1830652;78;21164;-65
2022/02/17 09:00:25;;;;;;;8.85;2.90;;;;;;;17.16;33.47;101265.91;1833389;78;21086;-64
2022/02/17 09:02:54;;;;;;;5.05;3.35;;;;;;;17.34;33.64;101290.11;1833467;78;21159;-63
2022/02/17 09:05:24;;;;;;;7.12;3.05;;;;;;;17.32;33.36;101282.70;1827396;78;21058;-62
2022/02/17 09:07:53;;;;;;;5.97;2.60;;;;;;;17.51;33.43;101284.27;1793982;80;21070;-62
2022/02/17 09:10:22;;;;;;;7.85;3.35;;;;;;;17.54;33.21;101284.09;1827095;78;21073;-62
2022/02/17 09:12:51;;;;;;;6.53;2.60;;;;;;;17.53;33.07;101289.02;1794025;80;21200;-64
2022/02/17 09:15:20;;;;;;;6.47;3.17;;;;;;;17.58;33.10;101284.73;1827242;78;21536;-65
2022/02/17 09:17:51;;;;;;;5.03;2.42;;;;;;;17.64;33.14;101270.59;1794109;80;21138;-63
2022/02/17 09:20:20;;;;;;;13.08;2.83;;;;;;;17.94;33.12;101263.92;1827285;78;21058;-65
2022/02/17 09:22:49;;;;;;;5.40;3.10;;;;;;;18.30;32.01;101259.89;1793005;80;21080;-62
2022/02/17 09:25:18;;;;;;;4.53;2.75;;;;;;;18.35;32.03;101259.58;1793956;79;21485;-62
2022/02/17 09:27:46;;;;;;;5.62;3.10;;;;;;;18.23;31.94;101256.39;1827245;78;21136;-61
2022/02/17 09:30:15;;;;;;;5.90;2.65;;;;;;;18.44;31.27;101237.70;1793989;80;21085;-61
2022/02/17 09:32:44;;;;;;;10.30;3.20;;;;;;;18.70;31.20;101239.12;1827248;78;21148;-63
2022/02/17 09:35:13;;;;;;;8.23;3.22;;;;;;;18.94;30.67;101229.17;1793933;80;21570;-63
2022/02/17 09:37:42;;;;;;;6.78;3.00;;;;;;;18.90;30.35;101218.72;1827055;78;21070;-63
2022/02/17 09:40:11;;;;;;;8.60;2.60;;;;;;;18.91;30.25;101215.56;1793995;80;21117;-63
2022/02/17 09:42:41;;;;;;;7.03;2.98;;;;;;;19.04;30.23;101212.44;1827271;78;21092;-62
2022/02/17 09:45:11;;;;;;;7.53;4.00;;;;;;;19.14;29.95;101203.33;1793981;80;21722;-62
2022/02/17 09:47:42;;;;;;;6.60;3.33;;;;;;;19.05;29.90;101201.28;1827208;78;21517;-65
2022/02/17 09:50:13;;;;;;;8.35;4.25;;;;;;;19.02;29.64;101180.16;1793573;80;21089;-64
2022/02/17 09:52:44;;;;;;;5.62;3.20;;;;;;;19.03;29.72;101186.73;1827210;78;21067;-61
2022/02/17 09:55:16;;;;;;;13.58;4.08;;;;;;;19.05;29.51;101193.27;1794097;80;21073;-63
2022/02/17 09:57:45;;;;;;;5.78;3.22;;;;;;;18.90;29.49;101186.70;1827242;78;21061;-62
2022/02/17 10:00:14;;;;;;;4.97;2.87;;;;;;;18.90;29.47;101171.15;1793942;80;21592;-65
2022/02/17 10:02:44;;;;;;;9.98;3.75;;;;;;;18.75;29.73;101174.33;1827194;78;21054;-61
2022/02/17 10:05:13;;;;;;;6.65;2.98;;;;;;;18.52;30.13;101170.53;1793743;79;21181;-61
2022/02/17 10:07:44;;;;;;;6.62;3.75;;;;;;;18.24;30.60;101173.66;1827351;78;21567;-63
2022/02/17 10:10:23;;;;;;;6.28;3.27;;;;;;;18.43;30.86;101152.48;1794110;80;21484;-61
2022/02/17 10:12:54;;;;;;;6.72;3.20;;;;;;;18.94;30.51;101159.79;1827363;78;21477;-63
2022/02/17 10:15:30;;;;;;;6.22;3.45;;;;;;;18.81;29.86;101158.42;1826814;78;21453;-61
2022/02/17 10:18:12;;;;;;;4.83;3.60;;;;;;;18.10;30.64;101156.37;1794134;80;21054;-61
2022/02/17 10:21:07;;;;;;;6.05;3.00;;;;;;;17.92;30.93;101160.56;1827347;78;21093;-62
2022/02/17 10:23:44;;;;;;;14.68;3.58;;;;;;;17.97;31.26;101154.11;1794098;80;21078;-62
2022/02/17 10:26:18;;;;;;;7.47;3.37;;;;;;;17.70;30.55;101149.52;1827237;78;21070;-62
2022/02/17 10:28:55;;;;;;;5.05;2.98;;;;;;;17.27;31.20;101153.02;1799113;80;21065;-61
2022/02/17 10:31:26;;;;;;;11.73;4.15;;;;;;;17.28;31.32;101141.45;1798662;80;21071;-63
2022/02/17 10:33:56;;;;;;;5.67;3.35;;;;;;;17.50;31.36;101134.78;1801092;80;21165;-63
2022/02/17 10:36:47;;;;;;;5.22;3.22;;;;;;;17.50;31.57;101129.45;1794174;80;21551;-63
2022/02/17 10:39:22;;;;;;;5.60;3.40;;;;;;;17.15;31.37;101129.81;1827259;78;21528;-63
2022/02/17 10:41:55;;;;;;;7.25;3.47;;;;;;;17.12;31.72;101130.02;1791682;80;21081;-63
2022/02/17 10:44:27;;;;;;;7.83;3.92;;;;;;;16.94;31.58;101134.63;1777061;80;21120;-65
2022/02/17 10:46:56;;;;;;;9.83;3.87;;;;;;;16.55;32.26;101128.02;1779888;80;21567;-62
2022/02/17 10:49:25;;;;;;;10.28;3.02;;;;;;;15.81;33.51;101122.87;1794013;80;21059;-65
2022/02/17 10:51:55;;;;;;;11.43;4.05;;;;;;;15.68;34.32;101113.36;1791778;78;21215;-61
2022/02/17 10:54:24;;;;;;;6.92;4.08;;;;;;;15.69;34.25;101124.34;1833240;77;21049;-67
2022/02/17 10:56:53;;;;;;;6.25;3.27;;;;;;;15.76;34.12;101123.11;1793955;80;21562;-60
2022/02/17 11:02:13;;;;;;;6.37;3.67;;;;;;;15.71;34.10;101122.94;1788193;80;21180;-66
2022/02/17 11:04:43;;;;;;;5.22;2.98;;;;;;;15.27;34.70;101107.59;1788175;80;21529;-65
2022/02/17 11:07:13;;;;;;;7.15;4.20;;;;;;;15.26;35.10;101113.38;1788325;80;21154;-64
2022/02/17 11:09:45;;;;;;;11.43;4.62;;;;;;;15.48;34.85;101105.14;1788248;80;21540;-66
2022/02/17 11:12:14;;;;;;;5.72;3.33;;;;;;;15.64;34.82;101105.18;1827215;78;21136;-66
2022/02/17 11:14:45;;;;;;;5.83;3.58;;;;;;;15.56;35.10;101104.72;1794119;80;21148;-64
2022/02/17 11:17:15;;;;;;;11.00;5.33;;;;;;;15.42;35.21;101090.41;1827052;78;21090;-65
2022/02/17 11:19:44;;;;;;;10.50;3.85;;;;;;;15.36;35.43;101106.67;1794013;80;21529;-60
2022/02/17 11:22:13;;;;;;;11.30;5.17;;;;;;;15.28;35.33;101106.20;1827403;78;21457;-60
2022/02/17 11:24:50;;;;;;;9.23;4.60;;;;;;;15.29;35.72;101099.09;1794057;80;21516;-63
2022/02/17 11:27:20;;;;;;;10.63;4.35;;;;;;;15.38;35.47;101096.83;1829491;77;21050;-61
2022/02/17 11:29:49;;;;;;;11.85;4.60;;;;;;;15.14;35.60;101098.11;1830440;77;21586;-61
2022/02/17 11:32:22;;;;;;;8.40;4.15;;;;;;;15.16;35.70;101121.42;1780721;80;21572;-62
2022/02/17 11:34:55;;;;;;;7.12;4.35;;;;;;;14.93;35.72;101095.64;1778131;80;21104;-63
2022/02/17 11:37:32;;;;;;;8.43;3.72;;;;;;;14.81;35.85;101090.95;1765385;80;21194;-59
2022/02/17 11:40:08;;;;;;;9.18;4.42;;;;;;;14.76;36.29;101079.75;1826320;78;21114;-60
2022/02/17 11:42:47;;;;;;;9.80;3.98;;;;;;;14.77;36.52;101082.77;1828308;78;21552;-62
2022/02/17 11:45:21;;;;;;;8.80;3.80;;;;;;;14.80;36.46;101085.28;1794010;80;21207;-60